createdAt,value
2023-03-07T00:00:34.184Z,14.10
2023-03-07T00:03:23.351Z,14.40
2023-03-07T00:06:13.050Z,10.95
2023-03-07T00:09:04.008Z,15.27
2023-03-07T00:11:53.898Z,28.85
2023-03-07T00:14:43.240Z,46.20
2023-03-07T00:17:33.822Z,92.00
2023-03-07T00:20:23.008Z,88.28
2023-03-07T00:23:12.245Z,32.72
2023-03-07T00:26:04.151Z,82.30
2023-03-07T00:28:55.655Z,84.07
2023-03-07T00:31:44.894Z,62.90
2023-03-07T00:34:35.835Z,20.40
2023-03-07T00:37:25.286Z,18.48
2023-03-07T00:40:15.847Z,14.48
2023-03-07T00:43:05.156Z,15.75
2023-03-07T00:45:54.722Z,18.33
2023-03-07T00:48:44.704Z,14.63
2023-03-07T00:51:36.085Z,12.38
2023-03-07T00:54:26.342Z,18.88
2023-03-07T00:57:15.710Z,14.63
2023-03-07T01:00:06.488Z,16.38
2023-03-07T01:02:57.817Z,11.73
2023-03-07T01:05:47.103Z,15.18
2023-03-07T01:08:38.000Z,15.73
2023-03-07T01:11:28.277Z,14.65
2023-03-07T01:14:17.746Z,17.73
2023-03-07T01:17:06.941Z,13.25
2023-03-07T01:19:56.364Z,18.25
2023-03-07T01:22:45.730Z,12.57
2023-03-07T01:25:40.923Z,10.38
2023-03-07T01:28:30.665Z,14.27
2023-03-07T01:31:20.499Z,12.65
2023-03-07T01:34:09.816Z,16.95
2023-03-07T01:36:59.466Z,14.40
2023-03-07T01:39:51.513Z,15.98
2023-03-07T01:42:42.336Z,12.87
2023-03-07T01:46:44.311Z,12.05
2023-03-07T01:49:37.546Z,13.60
2023-03-07T01:55:27.832Z,12.32
2023-03-07T01:58:23.137Z,12.55
2023-03-07T02:01:14.611Z,15.95
2023-03-07T02:04:10.850Z,10.57
2023-03-07T02:07:02.563Z,12.20
2023-03-07T02:09:54.766Z,10.33
2023-03-07T02:12:44.721Z,11.35
2023-03-07T02:15:38.012Z,11.77
2023-03-07T02:18:31.518Z,10.10
2023-03-07T02:21:32.987Z,8.82
2023-03-07T02:24:29.027Z,13.38
2023-03-07T02:27:20.113Z,16.73
2023-03-07T02:30:11.464Z,10.60
2023-03-07T02:33:01.067Z,9.88
2023-03-07T02:35:50.492Z,12.93
2023-03-07T02:38:42.809Z,16.77
2023-03-07T02:41:35.561Z,14.13
2023-03-07T02:44:32.191Z,10.00
2023-03-07T02:47:21.377Z,27.60
2023-03-07T02:50:13.348Z,11.00
2023-03-07T02:53:04.831Z,12.95
2023-03-07T02:55:54.133Z,12.85
2023-03-07T02:58:43.584Z,12.63
2023-03-07T03:01:34.305Z,16.80
2023-03-07T03:04:23.716Z,12.00
2023-03-07T03:07:12.997Z,8.10
2023-03-07T03:10:02.209Z,14.68
2023-03-07T03:12:53.901Z,13.25
2023-03-07T03:15:43.345Z,10.25
2023-03-07T03:18:34.065Z,10.10
2023-03-07T03:21:23.285Z,10.25
2023-03-07T03:24:13.041Z,10.10
2023-03-07T03:27:03.057Z,15.20
2023-03-07T03:29:55.428Z,10.38
2023-03-07T03:32:45.468Z,11.50
2023-03-07T03:35:41.177Z,14.88
2023-03-07T03:38:30.524Z,12.70
2023-03-07T03:41:20.044Z,15.77
2023-03-07T03:44:11.466Z,11.70
2023-03-07T03:47:00.804Z,14.57
2023-03-07T03:49:51.400Z,17.63
2023-03-07T03:52:45.356Z,17.95
2023-03-07T03:55:35.295Z,13.27
2023-03-07T03:58:24.541Z,12.98
2023-03-07T04:01:14.707Z,15.65
2023-03-07T04:04:04.995Z,15.40
2023-03-07T04:06:54.709Z,17.52
2023-03-07T04:09:45.689Z,15.65
2023-03-07T04:12:35.126Z,19.90
2023-03-07T04:15:26.184Z,17.25
2023-03-07T04:18:15.496Z,18.50
2023-03-07T04:21:05.901Z,21.52
2023-03-07T04:23:57.365Z,31.35
2023-03-07T04:26:51.873Z,27.95
2023-03-07T04:29:41.328Z,23.48
2023-03-07T04:32:39.498Z,26.73
2023-03-07T04:35:29.032Z,24.92
2023-03-07T04:38:18.515Z,23.20
2023-03-07T04:41:08.121Z,18.25
2023-03-07T04:43:59.260Z,28.35
2023-03-07T04:46:49.020Z,32.38
2023-03-07T04:49:39.178Z,34.05
2023-03-07T04:52:29.600Z,22.40
2023-03-07T04:55:19.309Z,33.38
2023-03-07T04:58:13.092Z,34.80
2023-03-07T05:01:06.689Z,31.15
2023-03-07T05:03:57.486Z,35.30
2023-03-07T05:06:47.138Z,25.42
2023-03-07T05:09:37.590Z,21.77
2023-03-07T05:12:27.740Z,23.02
2023-03-07T05:15:18.360Z,22.33
2023-03-07T05:18:09.358Z,20.23
2023-03-07T05:20:58.738Z,24.98
2023-03-07T05:23:48.894Z,19.48
2023-03-07T05:26:38.269Z,22.08
2023-03-07T05:29:27.689Z,23.83
2023-03-07T05:32:17.808Z,26.05
2023-03-07T05:35:12.030Z,29.33
2023-03-07T05:38:02.308Z,23.35
2023-03-07T05:40:53.619Z,23.05
2023-03-07T05:43:42.884Z,26.77
2023-03-07T05:46:32.465Z,20.30
2023-03-07T05:49:22.162Z,16.73
2023-03-07T05:52:12.818Z,23.42
2023-03-07T05:55:02.025Z,21.65
2023-03-07T05:57:52.234Z,31.73
2023-03-07T06:00:41.559Z,25.25
2023-03-07T06:03:31.322Z,31.65
2023-03-07T06:06:22.954Z,34.97
2023-03-07T06:09:13.608Z,34.65
2023-03-07T06:12:03.269Z,38.05
2023-03-07T06:14:53.625Z,36.78
2023-03-07T06:17:42.833Z,39.05
2023-03-07T06:20:32.536Z,40.10
2023-03-07T06:23:23.496Z,44.30
2023-03-07T06:26:17.517Z,39.50
2023-03-07T06:29:10.093Z,43.78
2023-03-07T06:31:59.486Z,32.75
2023-03-07T06:34:48.945Z,40.90
2023-03-07T06:37:38.451Z,35.75
2023-03-07T06:40:30.782Z,32.05
2023-03-07T06:43:23.737Z,38.83
2023-03-07T06:46:13.171Z,40.53
2023-03-07T06:49:06.466Z,44.83
2023-03-07T06:51:56.763Z,42.85
2023-03-07T06:54:46.156Z,41.40
2023-03-07T06:57:35.454Z,36.33
2023-03-07T07:00:26.179Z,46.10
2023-03-07T07:03:16.693Z,43.97
2023-03-07T07:06:06.438Z,44.45
2023-03-07T07:08:57.539Z,40.88
2023-03-07T07:11:49.712Z,44.03
2023-03-07T07:14:39.004Z,40.47
2023-03-07T07:17:30.298Z,37.25
2023-03-07T07:20:20.498Z,39.22
2023-03-07T07:23:09.981Z,45.80
2023-03-07T07:25:59.495Z,39.63
2023-03-07T07:28:48.729Z,40.75
2023-03-07T07:31:38.099Z,39.58
2023-03-07T07:34:29.140Z,37.55
2023-03-07T07:37:19.145Z,38.80
2023-03-07T07:40:11.312Z,35.97
2023-03-07T07:43:00.874Z,43.28
2023-03-07T07:45:59.346Z,33.47
2023-03-07T07:48:49.177Z,37.30
2023-03-07T07:51:41.204Z,38.08
2023-03-07T07:54:30.487Z,33.08
2023-03-07T07:57:22.457Z,29.52
2023-03-07T08:00:19.520Z,28.52
2023-03-07T08:03:08.948Z,19.38
2023-03-07T08:05:58.261Z,19.02
2023-03-07T08:08:49.293Z,15.25
2023-03-07T08:11:38.484Z,13.57
2023-03-07T08:14:27.694Z,14.23
2023-03-07T08:17:16.918Z,12.15
2023-03-07T08:20:09.975Z,13.07
2023-03-07T08:25:51.573Z,11.45
2023-03-07T08:28:42.130Z,9.43
2023-03-07T08:31:31.420Z,10.32
2023-03-07T08:34:20.687Z,11.77
2023-03-07T08:37:10.530Z,13.07
2023-03-07T08:39:59.928Z,13.35
2023-03-07T08:42:50.691Z,14.27
2023-03-07T08:45:41.944Z,11.52
2023-03-07T08:48:31.234Z,12.77
2023-03-07T08:51:20.941Z,10.80
2023-03-07T08:54:10.214Z,12.05
2023-03-07T08:56:59.936Z,12.82
2023-03-07T08:59:50.575Z,18.92
2023-03-07T09:02:40.010Z,24.27
2023-03-07T09:05:29.990Z,20.52
2023-03-07T09:08:19.364Z,17.38
2023-03-07T09:11:08.882Z,14.23
2023-03-07T09:13:58.391Z,15.07
2023-03-07T09:16:49.072Z,14.82
2023-03-07T09:19:38.322Z,26.63
2023-03-07T09:22:28.741Z,22.75
2023-03-07T09:25:18.328Z,24.15
2023-03-07T09:28:07.634Z,20.40
2023-03-07T09:30:56.885Z,26.27
2023-03-07T09:33:47.690Z,25.90
2023-03-07T09:36:37.452Z,28.73
2023-03-07T09:39:26.955Z,22.50
2023-03-07T09:42:26.486Z,41.42
2023-03-07T09:45:39.446Z,35.50
2023-03-07T09:49:18.955Z,23.48
2023-03-07T09:52:14.365Z,14.20
2023-03-07T09:55:09.247Z,14.55
2023-03-07T09:58:01.450Z,15.20
2023-03-07T10:00:57.145Z,24.83
2023-03-07T10:03:55.818Z,33.78
2023-03-07T10:06:53.942Z,27.10
2023-03-07T10:09:43.983Z,27.60
2023-03-07T10:12:52.202Z,37.05
2023-03-07T10:15:48.996Z,36.17
2023-03-07T10:19:04.008Z,39.78
2023-03-07T10:22:02.059Z,36.75
2023-03-07T10:25:15.597Z,35.63
2023-03-07T10:31:18.441Z,27.20
2023-03-07T10:34:26.651Z,23.33
2023-03-07T10:37:21.281Z,24.23
2023-03-07T10:40:21.370Z,26.15
2023-03-07T10:43:19.504Z,25.83
2023-03-07T10:46:25.281Z,23.77
2023-03-07T10:49:21.145Z,21.55
2023-03-07T10:52:30.444Z,20.63
2023-03-07T10:55:40.097Z,22.05
2023-03-07T10:58:30.782Z,24.67
2023-03-07T11:01:21.779Z,30.48
2023-03-07T11:04:23.958Z,29.75
2023-03-07T11:07:29.212Z,27.38
2023-03-07T11:10:35.612Z,25.85
2023-03-07T11:13:25.681Z,22.35
2023-03-07T11:16:23.344Z,15.27
2023-03-07T11:19:42.689Z,13.20
2023-03-07T11:22:36.665Z,13.80
2023-03-07T11:25:27.700Z,11.82
2023-03-07T11:28:35.568Z,10.60
2023-03-07T11:31:31.334Z,13.13
2023-03-07T11:34:35.279Z,17.23
2023-03-07T11:37:32.458Z,13.05
2023-03-07T11:40:29.047Z,11.65
2023-03-07T11:43:27.499Z,13.00
2023-03-07T11:46:29.128Z,14.48
2023-03-07T11:49:37.573Z,17.25
2023-03-07T11:52:49.912Z,17.70
2023-03-07T11:55:48.840Z,18.23
2023-03-07T11:59:03.327Z,21.02
2023-03-07T12:01:57.226Z,20.67
2023-03-07T12:05:16.123Z,22.85
2023-03-07T12:08:38.819Z,23.10
2023-03-07T12:12:02.994Z,15.18
2023-03-07T12:15:03.588Z,15.90
2023-03-07T12:18:08.058Z,16.33
2023-03-07T12:21:12.194Z,17.40
2023-03-07T12:24:05.151Z,18.85
2023-03-07T12:27:02.268Z,26.10
2023-03-07T12:29:57.561Z,24.80
2023-03-07T12:32:47.515Z,32.60
2023-03-07T12:35:46.620Z,35.90
2023-03-07T12:38:42.571Z,43.30
2023-03-07T12:41:55.589Z,44.70
2023-03-07T12:44:51.372Z,43.08
2023-03-07T12:47:57.065Z,45.40
2023-03-07T12:50:55.868Z,53.95
2023-03-07T12:53:52.324Z,51.60
2023-03-07T12:56:52.472Z,50.35
2023-03-07T12:59:45.890Z,27.65
2023-03-07T13:02:43.159Z,24.88
2023-03-07T13:05:35.188Z,21.27
2023-03-07T13:08:25.908Z,18.20
2023-03-07T13:11:24.085Z,17.05
2023-03-07T13:14:40.257Z,19.92
2023-03-07T13:18:00.678Z,21.98
2023-03-07T13:21:14.501Z,23.90
2023-03-07T13:24:37.765Z,17.90
2023-03-07T13:27:32.165Z,20.90
2023-03-07T13:30:23.420Z,20.55
2023-03-07T13:33:30.409Z,27.88
2023-03-07T13:36:37.990Z,29.10
2023-03-07T13:39:40.322Z,34.50
2023-03-07T13:42:48.857Z,42.83
2023-03-07T13:45:53.843Z,45.83
2023-03-07T13:49:08.718Z,53.58
2023-03-07T13:52:34.640Z,41.00
2023-03-07T13:55:31.591Z,52.35
2023-03-07T13:58:26.776Z,173.95
2023-03-07T14:01:20.450Z,190.40
2023-03-07T14:04:24.195Z,78.50
2023-03-07T14:07:25.904Z,76.27
2023-03-07T14:10:23.731Z,62.42
2023-03-07T14:14:04.646Z,52.22
2023-03-07T14:17:36.603Z,32.08
2023-03-07T14:20:42.801Z,31.05
2023-03-07T14:24:06.410Z,32.97
2023-03-07T14:26:59.385Z,30.38
2023-03-07T14:29:54.615Z,39.17
2023-03-07T14:32:43.917Z,40.78
2023-03-07T14:35:44.011Z,43.35
2023-03-07T14:38:34.088Z,61.28
2023-03-07T14:41:46.109Z,59.15
2023-03-07T14:44:59.450Z,63.67
2023-03-07T14:48:08.246Z,60.47
2023-03-07T14:51:02.906Z,65.90
2023-03-07T14:53:52.300Z,64.47
2023-03-07T14:56:41.921Z,69.57
2023-03-07T14:59:31.695Z,65.43
2023-03-07T15:02:20.932Z,58.25
2023-03-07T15:05:17.626Z,44.50
2023-03-07T15:08:20.780Z,45.70
2023-03-07T15:14:09.076Z,47.50
2023-03-07T15:17:04.280Z,51.67
2023-03-07T15:19:59.005Z,43.05
2023-03-07T15:22:48.773Z,47.83
2023-03-07T15:25:40.771Z,45.25
2023-03-07T15:28:34.266Z,37.90
2023-03-07T15:31:24.521Z,44.88
2023-03-07T15:34:26.222Z,40.50
2023-03-07T15:37:23.540Z,50.78
2023-03-07T15:40:31.423Z,47.53
2023-03-07T15:43:30.410Z,71.95
2023-03-07T15:46:20.082Z,89.68
2023-03-07T15:49:22.952Z,49.35
2023-03-07T15:52:26.175Z,65.65
2023-03-07T15:55:21.422Z,61.63
2023-03-07T15:58:15.738Z,59.58
2023-03-07T16:01:22.929Z,59.90
2023-03-07T16:04:39.141Z,68.40
2023-03-07T16:07:28.934Z,64.70
2023-03-07T16:10:18.492Z,66.20
2023-03-07T16:13:13.874Z,60.05
2023-03-07T16:16:07.352Z,57.80
2023-03-07T16:18:58.621Z,72.82
2023-03-07T16:21:48.114Z,68.55
2023-03-07T16:24:37.408Z,73.80
2023-03-07T16:27:26.697Z,65.05
2023-03-07T16:30:19.197Z,71.13
2023-03-07T16:33:12.503Z,72.50
2023-03-07T16:36:03.101Z,81.90
2023-03-07T16:38:52.276Z,94.60
2023-03-07T16:41:47.813Z,83.10
2023-03-07T16:44:41.149Z,105.00
2023-03-07T16:47:31.262Z,97.50
2023-03-07T16:50:23.091Z,120.97
2023-03-07T16:53:13.685Z,90.47
2023-03-07T16:56:02.918Z,93.88
2023-03-07T16:58:52.473Z,116.40
2023-03-07T17:01:42.982Z,58.10
2023-03-07T17:04:32.222Z,100.03
2023-03-07T17:07:23.592Z,59.45
2023-03-07T17:10:15.459Z,47.08
2023-03-07T17:13:07.052Z,61.72
2023-03-07T17:15:56.414Z,62.53
2023-03-07T17:18:46.140Z,57.45
2023-03-07T17:21:35.607Z,58.40
2023-03-07T17:24:24.897Z,50.20
2023-03-07T17:27:15.651Z,47.85
2023-03-07T17:30:06.158Z,64.18
2023-03-07T17:32:55.611Z,58.13
2023-03-07T17:35:44.894Z,60.30
2023-03-07T17:38:34.115Z,66.03
2023-03-07T17:41:23.255Z,58.22
2023-03-07T17:44:15.938Z,76.95
2023-03-07T17:47:07.091Z,85.70
2023-03-07T17:49:56.260Z,75.40
2023-03-07T17:52:45.486Z,65.97
2023-03-07T17:55:34.762Z,73.65
2023-03-07T17:58:23.920Z,63.80
2023-03-07T18:01:15.337Z,66.38
2023-03-07T18:04:06.464Z,69.65
2023-03-07T18:06:55.653Z,117.53
2023-03-07T18:09:44.962Z,71.45
2023-03-07T18:12:34.407Z,96.13
2023-03-07T18:15:24.171Z,85.72
2023-03-07T18:18:14.813Z,82.78
2023-03-07T18:21:06.527Z,69.07
2023-03-07T18:23:55.713Z,85.57
2023-03-07T18:26:45.165Z,78.63
2023-03-07T18:29:34.460Z,67.82
2023-03-07T18:32:25.234Z,78.07
2023-03-07T18:35:16.757Z,81.13
2023-03-07T18:38:06.041Z,77.30
2023-03-07T18:41:05.902Z,83.05
2023-03-07T18:43:56.386Z,70.00
2023-03-07T18:46:46.193Z,80.53
2023-03-07T18:49:35.630Z,81.95
2023-03-07T18:52:26.204Z,72.47
2023-03-07T18:55:15.463Z,88.50
2023-03-07T18:58:04.796Z,90.50
2023-03-07T19:00:54.153Z,94.95
2023-03-07T19:03:44.507Z,90.40
2023-03-07T19:06:36.730Z,91.63
2023-03-07T19:09:27.444Z,106.90
2023-03-07T19:12:16.784Z,99.60
2023-03-07T19:15:07.340Z,99.03
2023-03-07T19:17:56.500Z,97.53
2023-03-07T19:20:45.755Z,96.78
2023-03-07T19:23:35.037Z,115.72
2023-03-07T19:26:26.537Z,108.65
2023-03-07T19:29:15.741Z,124.55
2023-03-07T19:32:05.460Z,115.45
2023-03-07T19:34:55.625Z,97.55
2023-03-07T19:37:44.960Z,106.90
2023-03-07T19:40:34.398Z,117.13
2023-03-07T19:43:25.070Z,114.25
2023-03-07T19:46:16.333Z,111.07
2023-03-07T19:49:08.052Z,107.05
2023-03-07T19:51:57.788Z,127.85
2023-03-07T19:54:47.255Z,125.55
2023-03-07T19:57:37.218Z,138.68
2023-03-07T20:00:27.939Z,212.63
2023-03-07T20:03:20.229Z,129.63
2023-03-07T20:06:13.238Z,129.03
2023-03-07T20:11:51.798Z,134.55
2023-03-07T20:14:43.166Z,150.90
2023-03-07T20:17:34.463Z,147.00
2023-03-07T20:20:23.692Z,147.73
2023-03-07T20:23:12.920Z,146.48
2023-03-07T20:26:10.893Z,140.70
2023-03-07T20:29:01.308Z,157.55
2023-03-07T20:31:50.997Z,166.50
2023-03-07T20:34:41.885Z,155.30
2023-03-07T20:37:33.014Z,157.82
2023-03-07T20:40:22.312Z,193.80
2023-03-07T20:43:11.493Z,138.43
2023-03-07T20:46:04.992Z,134.82
2023-03-07T20:48:56.582Z,134.48
2023-03-07T20:51:48.746Z,136.60
2023-03-07T20:54:38.602Z,133.32
2023-03-07T20:57:27.803Z,134.88
2023-03-07T21:00:17.834Z,121.22
2023-03-07T21:03:09.941Z,130.18
2023-03-07T21:06:01.678Z,132.80
2023-03-07T21:08:52.724Z,134.75
2023-03-07T21:11:46.103Z,142.45
2023-03-07T21:14:35.410Z,130.25
2023-03-07T21:17:24.752Z,138.30
2023-03-07T21:20:14.340Z,124.63
2023-03-07T21:23:03.601Z,116.55
2023-03-07T21:25:55.826Z,114.65
2023-03-07T21:28:45.825Z,116.47
2023-03-07T21:31:36.862Z,112.80
2023-03-07T21:34:26.097Z,105.85
2023-03-07T21:37:15.250Z,126.63
2023-03-07T21:40:06.138Z,118.35
2023-03-07T21:42:56.770Z,149.55
2023-03-07T21:45:46.205Z,126.05
2023-03-07T21:48:35.841Z,121.20
2023-03-07T21:51:25.092Z,122.38
2023-03-07T21:54:14.254Z,129.52
2023-03-07T21:57:04.235Z,134.52
2023-03-07T21:59:54.912Z,154.20
2023-03-07T22:02:44.192Z,132.85
2023-03-07T22:05:33.405Z,124.22
2023-03-07T22:08:22.980Z,131.15
2023-03-07T22:11:14.121Z,129.82
2023-03-07T22:14:03.471Z,133.27
2023-03-07T22:16:54.132Z,125.30
2023-03-07T22:19:43.408Z,114.00
2023-03-07T22:22:32.696Z,82.95
2023-03-07T22:25:21.935Z,88.35
2023-03-07T22:28:11.215Z,91.43
2023-03-07T22:31:03.753Z,75.72
2023-03-07T22:33:54.376Z,69.43
2023-03-07T22:36:43.654Z,85.88
2023-03-07T22:39:32.977Z,82.60
2023-03-07T22:42:22.187Z,94.93
2023-03-07T22:45:12.898Z,85.88
2023-03-07T22:48:02.111Z,88.32
2023-03-07T22:50:52.840Z,77.95
2023-03-07T22:53:42.428Z,84.95
2023-03-07T22:56:31.993Z,79.25
2023-03-07T22:59:21.380Z,75.90
2023-03-07T23:02:10.699Z,73.07
2023-03-07T23:05:00.110Z,100.82
2023-03-07T23:07:50.658Z,63.00
2023-03-07T23:10:40.148Z,88.28
2023-03-07T23:13:29.394Z,96.00
2023-03-07T23:16:21.947Z,81.68
2023-03-07T23:19:11.280Z,80.07
2023-03-07T23:22:00.501Z,89.82
2023-03-07T23:24:51.176Z,80.45
2023-03-07T23:27:40.678Z,80.78
2023-03-07T23:30:30.012Z,66.72
2023-03-07T23:33:19.402Z,89.57
2023-03-07T23:36:10.191Z,89.25
2023-03-07T23:39:01.284Z,88.43
2023-03-07T23:41:51.905Z,79.35
2023-03-07T23:44:41.460Z,73.93
2023-03-07T23:47:30.698Z,84.22
2023-03-07T23:50:20.543Z,74.00
2023-03-07T23:53:09.716Z,73.45
2023-03-07T23:55:58.929Z,79.03
2023-03-07T23:58:51.982Z,79.63
